createdAt,value
2022-10-02T00:00:02.214Z,98678.13
2022-10-02T00:02:43.957Z,98677.00
2022-10-02T00:05:15.200Z,98683.84
2022-10-02T00:07:53.903Z,98680.84
2022-10-02T00:10:34.390Z,98671.91
2022-10-02T00:13:05.929Z,98671.72
2022-10-02T00:15:35.713Z,98676.25
2022-10-02T00:18:12.552Z,98680.84
2022-10-02T00:21:03.085Z,98683.38
2022-10-02T00:23:43.154Z,98665.47
2022-10-02T00:26:17.880Z,98677.56
2022-10-02T00:29:16.622Z,98672.09
2022-10-02T00:32:03.164Z,98663.00
2022-10-02T00:34:44.820Z,98673.63
2022-10-02T00:37:28.688Z,98670.53
2022-10-02T00:40:29.660Z,98678.13
2022-10-02T00:43:18.276Z,98674.84
2022-10-02T00:46:09.939Z,98664.91
2022-10-02T00:48:45.402Z,98673.66
2022-10-02T00:51:44.360Z,98660.38
2022-10-02T00:54:16.861Z,98667.91
2022-10-02T00:56:57.087Z,98668.66
2022-10-02T00:59:51.512Z,98676.38
2022-10-02T01:02:24.162Z,98665.13
2022-10-02T01:04:50.878Z,98666.78
2022-10-02T01:07:17.435Z,98672.69
2022-10-02T01:09:45.562Z,98676.66
2022-10-02T01:12:12.980Z,98663.50
2022-10-02T01:14:40.884Z,98653.03
2022-10-02T01:17:23.657Z,98657.31
2022-10-02T01:19:50.711Z,98657.31
2022-10-02T01:22:43.083Z,98661.47
2022-10-02T01:25:09.746Z,98662.94
2022-10-02T01:27:39.394Z,98665.41
2022-10-02T01:30:11.951Z,98668.81
2022-10-02T01:32:44.099Z,98665.72
2022-10-02T01:35:10.854Z,98678.00
2022-10-02T01:37:41.110Z,98677.59
2022-10-02T01:40:10.695Z,98676.72
2022-10-02T01:42:38.932Z,98681.53
2022-10-02T01:45:08.138Z,98689.44
2022-10-02T01:48:02.813Z,98696.16
2022-10-02T01:50:39.801Z,98684.28
2022-10-02T01:53:20.354Z,98673.44
2022-10-02T01:56:03.928Z,98680.22
2022-10-02T01:58:55.369Z,98681.59
2022-10-02T02:01:25.236Z,98683.47
2022-10-02T02:04:14.148Z,98694.94
2022-10-02T02:06:55.913Z,98678.94
2022-10-02T02:09:39.872Z,98675.53
2022-10-02T02:12:15.179Z,98676.25
2022-10-02T02:15:00.104Z,98674.78
2022-10-02T02:17:34.194Z,98662.28
2022-10-02T02:20:13.743Z,98673.06
2022-10-02T02:22:46.402Z,98680.41
2022-10-02T02:25:17.741Z,98683.00
2022-10-02T02:27:56.081Z,98678.50
2022-10-02T02:30:24.068Z,98673.06
2022-10-02T02:32:56.870Z,98682.91
2022-10-02T02:35:27.561Z,98687.06
2022-10-02T02:38:02.396Z,98687.25
2022-10-02T02:40:31.379Z,98686.09
2022-10-02T02:43:14.532Z,98685.47
2022-10-02T02:45:49.059Z,98676.56
2022-10-02T02:48:41.321Z,98698.63
2022-10-02T02:51:15.198Z,98691.72
2022-10-02T02:53:49.314Z,98705.44
2022-10-02T02:56:19.290Z,98703.22
2022-10-02T02:58:53.930Z,98700.84
2022-10-02T03:01:21.000Z,98704.41
2022-10-02T03:03:48.351Z,98705.09
2022-10-02T03:06:20.580Z,98710.22
2022-10-02T03:08:50.333Z,98717.09
2022-10-02T03:11:38.842Z,98713.63
2022-10-02T03:14:26.405Z,98706.56
2022-10-02T03:17:23.889Z,98716.19
2022-10-02T03:20:29.225Z,98726.13
2022-10-02T03:23:00.021Z,98731.25
2022-10-02T03:25:41.460Z,98726.88
2022-10-02T03:28:50.539Z,98724.19
2022-10-02T03:31:12.959Z,98720.72
2022-10-02T03:33:40.993Z,98723.28
2022-10-02T03:36:08.656Z,98722.72
2022-10-02T03:38:35.995Z,98728.88
2022-10-02T03:41:02.572Z,98726.84
2022-10-02T03:43:30.645Z,98727.84
2022-10-02T03:45:57.412Z,98735.75
2022-10-02T03:48:24.205Z,98737.50
2022-10-02T03:50:51.031Z,98737.59
2022-10-02T03:53:21.111Z,98731.34
2022-10-02T03:55:57.651Z,98725.47
2022-10-02T03:58:25.702Z,98720.47
2022-10-02T04:00:58.886Z,98731.53
2022-10-02T04:03:43.788Z,98731.44
2022-10-02T04:06:25.304Z,98715.22
2022-10-02T04:09:01.189Z,98722.91
2022-10-02T04:11:33.464Z,98721.72
2022-10-02T04:14:10.080Z,98725.38
2022-10-02T04:16:42.603Z,98734.91
2022-10-02T04:19:17.137Z,98741.47
2022-10-02T04:21:55.588Z,98736.59
2022-10-02T04:24:22.119Z,98744.41
2022-10-02T04:27:23.606Z,98750.03
2022-10-02T04:29:58.314Z,98744.78
2022-10-02T04:32:27.687Z,98733.63
2022-10-02T04:34:54.548Z,98723.81
2022-10-02T04:37:44.582Z,98731.72
2022-10-02T04:40:29.806Z,98732.00
2022-10-02T04:43:21.062Z,98749.81
2022-10-02T04:46:17.098Z,98743.72
2022-10-02T04:48:52.965Z,98739.53
2022-10-02T04:51:41.162Z,98759.94
2022-10-02T04:54:32.647Z,98762.13
2022-10-02T04:57:05.517Z,98749.50
2022-10-02T04:59:47.044Z,98754.81
2022-10-02T05:02:35.241Z,98756.84
2022-10-02T05:05:23.574Z,98748.13
2022-10-02T05:08:20.383Z,98758.88
2022-10-02T05:11:13.234Z,98759.59
2022-10-02T05:13:45.798Z,98752.50
2022-10-02T05:16:43.089Z,98767.84
2022-10-02T05:19:27.813Z,98773.59
2022-10-02T05:22:12.108Z,98761.81
2022-10-02T05:24:57.931Z,98763.72
2022-10-02T05:27:25.028Z,98774.19
2022-10-02T05:29:57.416Z,98781.91
2022-10-02T05:32:48.816Z,98777.69
2022-10-02T05:35:24.307Z,98779.59
2022-10-02T05:37:59.867Z,98784.66
2022-10-02T05:40:30.589Z,98788.38
2022-10-02T05:43:10.988Z,98789.16
2022-10-02T05:45:40.757Z,98779.59
2022-10-02T05:48:18.450Z,98775.13
2022-10-02T05:50:50.071Z,98780.16
2022-10-02T05:53:33.834Z,98791.28
2022-10-02T05:56:09.337Z,98794.13
2022-10-02T05:58:36.674Z,98800.31
2022-10-02T06:01:17.817Z,98799.72
2022-10-02T06:04:19.262Z,98797.00
2022-10-02T06:06:51.681Z,98808.84
2022-10-02T06:09:38.537Z,98811.44
2022-10-02T06:12:14.511Z,98817.50
2022-10-02T06:14:51.008Z,98825.97
2022-10-02T06:17:49.661Z,98819.72
2022-10-02T06:20:37.610Z,98815.41
2022-10-02T06:23:16.331Z,98817.75
2022-10-02T06:26:17.982Z,98820.78
2022-10-02T06:28:53.076Z,98829.09
2022-10-02T06:31:57.425Z,98823.66
2022-10-02T06:34:24.114Z,98820.09
2022-10-02T06:37:13.961Z,98834.03
2022-10-02T06:39:56.777Z,98825.13
2022-10-02T06:42:38.425Z,98831.59
2022-10-02T06:45:23.721Z,98837.19
2022-10-02T06:47:57.523Z,98844.41
2022-10-02T06:50:30.381Z,98840.66
2022-10-02T06:53:29.224Z,98819.19
2022-10-02T06:56:26.809Z,98816.00
2022-10-02T06:59:14.883Z,98818.19
2022-10-02T07:01:57.620Z,98818.03
2022-10-02T07:04:47.024Z,98823.00
2022-10-02T07:07:13.552Z,98817.75
2022-10-02T07:10:03.551Z,98831.13
2022-10-02T07:13:05.434Z,98834.31
2022-10-02T07:15:49.298Z,98828.97
2022-10-02T07:18:21.627Z,98823.56
2022-10-02T07:21:03.078Z,98825.97
2022-10-02T07:24:02.630Z,98823.09
2022-10-02T07:26:48.300Z,98807.31
2022-10-02T07:29:32.431Z,98812.31
2022-10-02T07:32:17.668Z,98812.84
2022-10-02T07:35:22.156Z,98810.81
2022-10-02T07:38:10.628Z,98801.13
2022-10-02T07:41:16.053Z,98800.03
2022-10-02T07:43:54.682Z,98793.66
2022-10-02T07:46:40.069Z,98784.59
2022-10-02T07:49:39.393Z,98783.88
2022-10-02T07:52:28.732Z,98797.75
2022-10-02T07:54:55.329Z,98798.19
2022-10-02T07:57:27.627Z,98806.91
2022-10-02T08:00:23.947Z,98800.03
2022-10-02T08:02:59.634Z,98805.81
2022-10-02T08:05:42.482Z,98818.56
2022-10-02T08:08:47.718Z,98830.78
2022-10-02T08:11:24.318Z,98837.63
2022-10-02T08:13:57.873Z,98845.16
2022-10-02T08:16:32.457Z,98838.22
2022-10-02T08:19:21.708Z,98850.66
2022-10-02T08:21:55.509Z,98842.59
2022-10-02T08:24:29.975Z,98862.34
2022-10-02T08:27:08.377Z,98849.22
2022-10-02T08:29:48.972Z,98841.28
2022-10-02T08:32:15.581Z,98836.66
2022-10-02T08:34:43.535Z,98836.97
2022-10-02T08:37:19.233Z,98842.16
2022-10-02T08:40:22.982Z,98848.47
2022-10-02T08:43:13.991Z,98827.56
2022-10-02T08:46:14.531Z,98817.31
2022-10-02T08:49:17.767Z,98819.06
2022-10-02T08:52:16.283Z,98827.13
2022-10-02T08:55:10.581Z,98823.38
2022-10-02T08:57:54.421Z,98825.69
2022-10-02T09:00:25.051Z,98813.16
2022-10-02T09:02:54.375Z,98811.00
2022-10-02T09:05:56.448Z,98815.13
2022-10-02T09:09:07.379Z,98818.94
2022-10-02T09:11:52.092Z,98813.81
2022-10-02T09:14:58.811Z,98811.97
2022-10-02T09:17:35.498Z,98811.00
2022-10-02T09:20:05.005Z,98805.84
2022-10-02T09:22:40.338Z,98804.91
2022-10-02T09:25:06.941Z,98798.78
2022-10-02T09:27:51.638Z,98801.16
2022-10-02T09:30:33.098Z,98788.47
2022-10-02T09:33:34.615Z,98777.22
2022-10-02T09:36:24.826Z,98779.00
2022-10-02T09:39:13.570Z,98779.31
2022-10-02T09:42:00.746Z,98788.00
2022-10-02T09:44:46.139Z,98777.19
2022-10-02T09:47:44.096Z,98784.09
2022-10-02T09:50:42.343Z,98773.88
2022-10-02T09:53:36.047Z,98774.97
2022-10-02T09:56:17.926Z,98767.94
2022-10-02T09:59:19.009Z,98774.19
2022-10-02T10:02:04.694Z,98766.97
2022-10-02T10:04:54.021Z,98763.56
2022-10-02T10:07:39.154Z,98758.16
2022-10-02T10:10:32.533Z,98758.38
2022-10-02T10:13:16.130Z,98763.66
2022-10-02T10:16:22.133Z,98748.59
2022-10-02T10:19:07.465Z,98758.38
2022-10-02T10:22:04.352Z,98761.56
2022-10-02T10:25:00.603Z,98752.50
2022-10-02T10:27:49.100Z,98751.16
2022-10-02T10:30:58.072Z,98746.63
2022-10-02T10:33:44.055Z,98749.22
2022-10-02T10:36:55.301Z,98746.50
2022-10-02T10:39:39.788Z,98742.47
2022-10-02T10:42:27.556Z,98740.22
2022-10-02T10:45:18.299Z,98739.75
2022-10-02T10:48:30.037Z,98730.91
2022-10-02T10:51:34.056Z,98716.47
2022-10-02T10:54:33.639Z,98721.66
2022-10-02T10:57:18.617Z,98727.09
2022-10-02T11:00:13.492Z,98726.72
2022-10-02T11:02:54.650Z,98718.56
2022-10-02T11:05:49.505Z,98709.44
2022-10-02T11:08:18.995Z,98703.63
2022-10-02T11:11:19.734Z,98701.28
2022-10-02T11:14:11.003Z,98698.81
2022-10-02T11:16:44.032Z,98697.47
2022-10-02T11:19:24.922Z,98704.88
2022-10-02T11:22:09.832Z,98703.75
2022-10-02T11:24:50.895Z,98694.28
2022-10-02T11:27:45.411Z,98689.09
2022-10-02T11:30:21.296Z,98685.50
2022-10-02T11:33:07.205Z,98681.16
2022-10-02T11:35:44.989Z,98681.22
2022-10-02T11:38:30.523Z,98674.09
2022-10-02T11:40:59.821Z,98668.09
2022-10-02T11:43:44.201Z,98666.19
2022-10-02T11:46:17.122Z,98661.00
2022-10-02T11:49:31.698Z,98661.31
2022-10-02T11:52:19.413Z,98659.25
2022-10-02T11:55:09.861Z,98656.78
2022-10-02T11:57:39.407Z,98652.53
2022-10-02T12:00:35.343Z,98648.69
2022-10-02T12:03:21.261Z,98643.09
2022-10-02T12:06:33.797Z,98631.56
2022-10-02T12:09:09.511Z,98630.34
2022-10-02T12:12:16.999Z,98630.59
2022-10-02T12:14:49.447Z,98634.25
2022-10-02T12:17:37.812Z,98636.97
2022-10-02T12:20:31.224Z,98636.59
2022-10-02T12:24:06.938Z,98638.91
2022-10-02T12:27:00.431Z,98612.03
2022-10-02T12:29:40.464Z,98619.47
2022-10-02T12:32:29.220Z,98622.31
2022-10-02T12:35:17.938Z,98614.22
2022-10-02T12:37:53.620Z,98613.38
2022-10-02T12:40:32.788Z,98607.81
2022-10-02T12:43:26.820Z,98607.66
2022-10-02T12:46:15.036Z,98605.56
2022-10-02T12:49:14.253Z,98602.50
2022-10-02T12:52:12.720Z,98601.34
2022-10-02T12:54:57.962Z,98598.56
2022-10-02T12:57:52.091Z,98591.72
2022-10-02T13:00:20.442Z,98593.06
2022-10-02T13:03:05.515Z,98584.06
2022-10-02T13:05:35.280Z,98586.81
2022-10-02T13:08:41.558Z,98574.28
2022-10-02T13:11:35.884Z,98574.59
2022-10-02T13:14:23.422Z,98571.53
2022-10-02T13:17:10.081Z,98564.06
2022-10-02T13:19:53.586Z,98562.72
2022-10-02T13:22:26.204Z,98568.03
2022-10-02T13:25:18.687Z,98566.69
2022-10-02T13:28:30.285Z,98563.75
2022-10-02T13:31:36.564Z,98552.03
2022-10-02T13:34:13.646Z,98551.44
2022-10-02T13:37:00.431Z,98540.31
2022-10-02T13:39:29.663Z,98546.88
2022-10-02T13:42:14.749Z,98549.28
2022-10-02T13:44:41.350Z,98538.22
2022-10-02T13:47:34.069Z,98535.97
2022-10-02T13:50:22.418Z,98534.78
2022-10-02T13:53:03.402Z,98534.47
2022-10-02T13:55:40.940Z,98531.34
2022-10-02T13:58:35.561Z,98530.91
2022-10-02T14:01:11.488Z,98535.50
2022-10-02T14:04:10.859Z,98528.47
2022-10-02T14:06:58.756Z,98529.22
2022-10-02T14:09:47.289Z,98513.06
2022-10-02T14:12:27.629Z,98515.25
2022-10-02T14:15:12.313Z,98509.53
2022-10-02T14:18:00.782Z,98513.16
2022-10-02T14:20:32.011Z,98505.47
2022-10-02T14:23:33.721Z,98500.28
2022-10-02T14:26:18.807Z,98495.41
2022-10-02T14:29:08.994Z,98502.91
2022-10-02T14:31:36.175Z,98498.47
2022-10-02T14:34:13.951Z,98489.50
2022-10-02T14:36:59.036Z,98488.22
2022-10-02T14:39:37.443Z,98487.72
2022-10-02T14:42:22.121Z,98485.75
2022-10-02T14:45:06.848Z,98480.84
2022-10-02T14:47:51.787Z,98489.81
2022-10-02T14:50:42.769Z,98482.66
2022-10-02T14:53:28.108Z,98481.34
2022-10-02T14:56:27.862Z,98489.50
2022-10-02T14:59:12.003Z,98488.38
2022-10-02T15:01:45.328Z,98479.38
2022-10-02T15:04:22.532Z,98481.78
2022-10-02T15:06:57.981Z,98487.50
2022-10-02T15:09:49.505Z,98486.69
2022-10-02T15:12:24.213Z,98478.31
2022-10-02T15:15:16.036Z,98481.13
2022-10-02T15:18:00.034Z,98475.75
2022-10-02T15:20:48.661Z,98468.06
2022-10-02T15:23:41.636Z,98467.75
2022-10-02T15:26:25.758Z,98465.44
2022-10-02T15:29:11.155Z,98459.72
2022-10-02T15:32:04.845Z,98458.09
2022-10-02T15:34:52.068Z,98458.09
2022-10-02T15:37:18.601Z,98446.63
2022-10-02T15:39:51.836Z,98450.94
2022-10-02T15:42:41.882Z,98450.13
2022-10-02T15:45:19.467Z,98443.41
2022-10-02T15:48:04.941Z,98441.88
2022-10-02T15:50:34.557Z,98445.94
2022-10-02T15:53:26.104Z,98457.53
2022-10-02T15:55:59.180Z,98447.47
2022-10-02T15:58:58.439Z,98449.03
2022-10-02T16:01:52.236Z,98445.78
2022-10-02T16:04:27.582Z,98432.63
2022-10-02T16:07:14.280Z,98432.72
2022-10-02T16:09:43.624Z,98432.97
2022-10-02T16:12:36.380Z,98432.09
2022-10-02T16:15:32.271Z,98438.41
2022-10-02T16:18:04.946Z,98435.50
2022-10-02T16:21:06.370Z,98431.63
2022-10-02T16:24:08.665Z,98439.66
2022-10-02T16:27:00.739Z,98433.44
2022-10-02T16:29:47.871Z,98445.47
2022-10-02T16:32:22.113Z,98444.25
2022-10-02T16:35:20.209Z,98430.56
2022-10-02T16:37:59.695Z,98425.97
2022-10-02T16:40:42.409Z,98426.03
2022-10-02T16:43:26.986Z,98427.66
2022-10-02T16:46:09.905Z,98435.50
2022-10-02T16:49:19.731Z,98436.38
2022-10-02T16:52:10.451Z,98434.56
2022-10-02T16:54:57.401Z,98438.13
2022-10-02T16:57:37.229Z,98435.13
2022-10-02T17:00:23.963Z,98435.13
2022-10-02T17:02:58.490Z,98436.25
2022-10-02T17:05:45.727Z,98445.28
2022-10-02T17:08:23.092Z,98439.41
2022-10-02T17:10:53.274Z,98442.16
2022-10-02T17:13:32.276Z,98445.00
2022-10-02T17:16:08.073Z,98444.75
2022-10-02T17:18:45.441Z,98440.78
2022-10-02T17:21:24.754Z,98456.53
2022-10-02T17:24:28.880Z,98460.19
2022-10-02T17:27:04.260Z,98463.22
2022-10-02T17:29:39.839Z,98472.91
2022-10-02T17:32:09.002Z,98471.41
2022-10-02T17:34:47.942Z,98473.34
2022-10-02T17:37:17.396Z,98474.00
2022-10-02T17:40:05.695Z,98467.31
2022-10-02T17:42:41.364Z,98476.06
2022-10-02T17:45:42.296Z,98479.19
2022-10-02T17:48:24.366Z,98483.44
2022-10-02T17:50:59.964Z,98486.97
2022-10-02T17:53:51.098Z,98483.56
2022-10-02T17:56:41.036Z,98490.13
2022-10-02T17:59:20.085Z,98489.31
2022-10-02T18:01:51.314Z,98488.22
2022-10-02T18:04:24.215Z,98501.56
2022-10-02T18:06:53.990Z,98507.75
2022-10-02T18:09:23.527Z,98510.09
2022-10-02T18:12:18.541Z,98511.16
2022-10-02T18:14:51.560Z,98509.50
2022-10-02T18:17:27.538Z,98512.53
2022-10-02T18:20:17.095Z,98514.72
2022-10-02T18:23:04.863Z,98511.94
2022-10-02T18:25:41.709Z,98506.06
2022-10-02T18:28:17.701Z,98509.75
2022-10-02T18:30:56.956Z,98505.91
2022-10-02T18:33:54.087Z,98509.84
2022-10-02T18:36:50.649Z,98508.31
2022-10-02T18:39:19.874Z,98515.75
2022-10-02T18:42:17.076Z,98517.63
2022-10-02T18:45:27.144Z,98518.44
2022-10-02T18:48:20.263Z,98526.31
2022-10-02T18:51:12.248Z,98518.84
2022-10-02T18:53:59.654Z,98534.41
2022-10-02T18:57:04.247Z,98527.19
2022-10-02T18:59:45.717Z,98535.16
2022-10-02T19:02:49.761Z,98526.13
2022-10-02T19:05:26.082Z,98533.38
2022-10-02T19:08:04.871Z,98525.66
2022-10-02T19:10:31.420Z,98527.44
2022-10-02T19:13:01.025Z,98523.91
2022-10-02T19:15:31.095Z,98518.31
2022-10-02T19:18:01.047Z,98522.56
2022-10-02T19:20:53.118Z,98518.78
2022-10-02T19:23:34.194Z,98526.50
2022-10-02T19:26:06.135Z,98522.44
2022-10-02T19:28:45.417Z,98526.50
2022-10-02T19:31:13.346Z,98524.66
2022-10-02T19:33:49.821Z,98530.44
2022-10-02T19:36:24.142Z,98528.38
2022-10-02T19:39:01.316Z,98531.69
2022-10-02T19:41:35.367Z,98529.66
2022-10-02T19:44:07.182Z,98533.31
2022-10-02T19:46:37.139Z,98540.88
2022-10-02T19:49:05.083Z,98537.19
2022-10-02T19:51:43.093Z,98537.31
2022-10-02T19:54:16.262Z,98530.63
2022-10-02T19:56:44.706Z,98538.09
2022-10-02T19:59:19.622Z,98537.50
2022-10-02T20:01:49.061Z,98531.88
2022-10-02T20:04:20.042Z,98527.88
2022-10-02T20:06:53.041Z,98529.91
2022-10-02T20:09:43.867Z,98538.41
2022-10-02T20:12:15.664Z,98543.47
2022-10-02T20:14:54.274Z,98542.75
2022-10-02T20:17:21.016Z,98534.66
2022-10-02T20:20:02.006Z,98547.94
2022-10-02T20:22:31.914Z,98531.09
2022-10-02T20:25:18.633Z,98534.03
2022-10-02T20:27:52.493Z,98536.28
2022-10-02T20:30:21.813Z,98536.28
2022-10-02T20:33:03.043Z,98538.94
2022-10-02T20:35:51.125Z,98542.50
2022-10-02T20:38:44.648Z,98543.59
2022-10-02T20:41:23.653Z,98534.53
2022-10-02T20:44:02.182Z,98533.22
2022-10-02T20:47:00.390Z,98528.97
2022-10-02T20:49:40.259Z,98537.44
2022-10-02T20:52:52.447Z,98544.03
2022-10-02T20:55:27.146Z,98548.66
2022-10-02T20:58:01.121Z,98549.59
2022-10-02T21:00:42.926Z,98541.56
2022-10-02T21:03:37.159Z,98553.13
2022-10-02T21:06:26.575Z,98549.63
2022-10-02T21:09:22.394Z,98550.56
2022-10-02T21:11:58.417Z,98551.53
2022-10-02T21:14:44.626Z,98554.41
2022-10-02T21:17:48.776Z,98551.81
2022-10-02T21:20:49.244Z,98557.09
2022-10-02T21:23:38.950Z,98559.22
2022-10-02T21:26:17.596Z,98561.34
2022-10-02T21:29:08.834Z,98564.75
2022-10-02T21:31:41.290Z,98569.81
2022-10-02T21:34:08.800Z,98563.34
2022-10-02T21:36:57.424Z,98559.13
2022-10-02T21:39:45.339Z,98558.41
2022-10-02T21:42:42.703Z,98548.63
2022-10-02T21:45:32.240Z,98547.84
2022-10-02T21:48:13.887Z,98546.53
2022-10-02T21:51:13.962Z,98541.69
2022-10-02T21:53:58.712Z,98550.06
2022-10-02T21:56:52.630Z,98551.94
2022-10-02T22:00:07.950Z,98545.69
2022-10-02T22:03:22.968Z,98544.88
2022-10-02T22:06:15.259Z,98554.06
2022-10-02T22:08:55.221Z,98551.72
2022-10-02T22:11:34.600Z,98553.72
2022-10-02T22:14:09.118Z,98557.22
2022-10-02T22:16:42.825Z,98553.03
2022-10-02T22:19:53.956Z,98551.84
2022-10-02T22:22:29.292Z,98553.72
2022-10-02T22:25:14.026Z,98549.00
2022-10-02T22:28:05.377Z,98561.00
2022-10-02T22:30:47.817Z,98567.38
2022-10-02T22:33:23.340Z,98559.09
2022-10-02T22:36:27.166Z,98556.63
2022-10-02T22:39:05.736Z,98550.63
2022-10-02T22:41:38.635Z,98551.34
2022-10-02T22:44:18.847Z,98553.94
2022-10-02T22:46:54.038Z,98557.44
2022-10-02T22:49:37.541Z,98559.09
2022-10-02T22:52:08.744Z,98557.56
2022-10-02T22:54:38.092Z,98571.09
2022-10-02T22:57:12.763Z,98560.03
2022-10-02T22:59:46.347Z,98563.34
2022-10-02T23:02:32.682Z,98563.19
2022-10-02T23:05:12.274Z,98564.34
2022-10-02T23:07:49.545Z,98556.22
2022-10-02T23:10:25.714Z,98560.34
2022-10-02T23:13:04.403Z,98561.66
2022-10-02T23:15:59.355Z,98569.88
2022-10-02T23:18:36.884Z,98558.50
2022-10-02T23:21:29.431Z,98554.19
2022-10-02T23:24:22.558Z,98554.69
2022-10-02T23:26:55.465Z,98552.59
2022-10-02T23:29:46.244Z,98547.19
2022-10-02T23:32:31.645Z,98546.03
2022-10-02T23:35:19.160Z,98547.59
2022-10-02T23:38:02.022Z,98544.16
2022-10-02T23:40:50.290Z,98549.91
2022-10-02T23:43:38.456Z,98543.41
2022-10-02T23:46:15.893Z,98544.34
2022-10-02T23:48:43.004Z,98550.56
2022-10-02T23:51:15.200Z,98552.44
2022-10-02T23:53:53.998Z,98540.59
2022-10-02T23:56:35.585Z,98553.19
2022-10-02T23:59:12.527Z,98546.69
